createdAt,value
2023-02-27T00:02:49.200Z,10.13
2023-02-27T00:08:17.416Z,8.38
2023-02-27T00:13:45.404Z,8.18
2023-02-27T00:19:14.002Z,9.32
2023-02-27T00:24:40.862Z,8.60
2023-02-27T00:30:11.556Z,8.35
2023-02-27T00:35:39.240Z,7.05
2023-02-27T00:41:07.252Z,7.78
2023-02-27T00:46:35.146Z,8.40
2023-02-27T00:52:02.399Z,7.47
2023-02-27T00:57:31.142Z,8.20
2023-02-27T01:02:58.287Z,7.03
2023-02-27T01:08:26.215Z,8.32
2023-02-27T01:13:53.513Z,6.75
2023-02-27T01:19:21.764Z,7.00
2023-02-27T01:24:49.083Z,7.22
2023-02-27T01:30:17.066Z,7.22
2023-02-27T01:35:46.046Z,6.13
2023-02-27T01:41:13.565Z,5.93
2023-02-27T01:46:42.313Z,6.80
2023-02-27T01:52:13.824Z,6.22
2023-02-27T01:57:45.044Z,7.63
2023-02-27T02:03:20.578Z,6.72
2023-02-27T02:08:51.255Z,6.05
2023-02-27T02:14:19.473Z,5.57
2023-02-27T02:20:07.805Z,6.38
2023-02-27T02:25:41.114Z,5.68
2023-02-27T02:36:59.538Z,5.97
2023-02-27T02:43:09.101Z,5.15
2023-02-27T02:49:03.182Z,6.35
2023-02-27T02:54:49.329Z,5.72
2023-02-27T03:00:21.420Z,5.60
2023-02-27T03:05:58.432Z,5.63
2023-02-27T03:11:31.764Z,4.13
2023-02-27T03:17:05.637Z,5.28
2023-02-27T03:22:38.751Z,4.75
2023-02-27T03:28:15.388Z,4.80
2023-02-27T03:33:51.011Z,4.30
2023-02-27T03:39:29.456Z,5.03
2023-02-27T03:45:10.562Z,5.07
2023-02-27T03:50:39.076Z,4.47
2023-02-27T03:56:09.489Z,4.50
2023-02-27T04:01:36.895Z,4.78
2023-02-27T04:07:37.086Z,4.35
2023-02-27T04:13:07.238Z,4.90
2023-02-27T04:18:44.337Z,4.75
2023-02-27T04:24:36.532Z,5.10
2023-02-27T04:30:23.979Z,4.30
2023-02-27T04:35:57.233Z,4.38
2023-02-27T04:41:50.276Z,4.43
2023-02-27T04:47:20.083Z,3.80
2023-02-27T04:52:55.164Z,3.67
2023-02-27T04:58:29.936Z,4.20
2023-02-27T05:04:00.615Z,4.80
2023-02-27T05:09:59.777Z,3.88
2023-02-27T05:16:06.649Z,3.22
2023-02-27T05:21:54.305Z,5.60
2023-02-27T05:27:38.925Z,4.72
2023-02-27T05:33:47.577Z,4.50
2023-02-27T05:39:19.782Z,6.43
2023-02-27T05:44:54.684Z,4.90
2023-02-27T05:50:29.400Z,5.00
2023-02-27T05:56:01.765Z,4.85
2023-02-27T06:01:29.055Z,6.17
2023-02-27T06:06:57.938Z,5.00
2023-02-27T06:12:25.580Z,5.85
2023-02-27T06:17:52.779Z,5.03
2023-02-27T06:23:20.017Z,5.78
2023-02-27T06:28:47.065Z,4.85
2023-02-27T06:34:14.273Z,5.05
2023-02-27T06:39:41.774Z,4.40
2023-02-27T06:45:10.787Z,5.13
2023-02-27T06:50:37.942Z,5.57
2023-02-27T06:56:05.780Z,5.00
2023-02-27T07:01:33.491Z,5.25
2023-02-27T07:07:34.215Z,5.20
2023-02-27T07:12:47.919Z,4.95
2023-02-27T07:18:15.366Z,5.00
2023-02-27T07:23:43.764Z,4.63
2023-02-27T07:29:11.278Z,4.97
2023-02-27T07:34:39.404Z,5.53
2023-02-27T07:40:10.349Z,4.80
2023-02-27T07:45:38.122Z,5.38
2023-02-27T07:51:05.625Z,5.18
2023-02-27T07:56:33.474Z,5.10
2023-02-27T08:02:01.798Z,4.72
2023-02-27T08:07:29.486Z,5.50
2023-02-27T08:12:57.144Z,5.43
2023-02-27T08:18:25.899Z,5.70
2023-02-27T08:23:53.418Z,5.43
2023-02-27T08:29:21.465Z,5.40
2023-02-27T08:34:49.834Z,6.07
2023-02-27T08:40:17.840Z,5.22
2023-02-27T08:45:45.661Z,5.43
2023-02-27T08:51:13.374Z,4.93
2023-02-27T08:56:40.626Z,5.22
2023-02-27T09:02:09.948Z,5.45
2023-02-27T09:07:37.856Z,5.32
2023-02-27T09:13:05.317Z,5.03
2023-02-27T09:18:32.816Z,5.25
2023-02-27T09:24:10.155Z,4.55
2023-02-27T09:29:44.280Z,4.00
2023-02-27T09:35:11.749Z,3.65
2023-02-27T09:40:43.222Z,4.20
2023-02-27T09:46:18.378Z,3.70
2023-02-27T09:51:45.491Z,3.72
2023-02-27T09:57:23.230Z,3.10
2023-02-27T10:02:56.200Z,3.60
2023-02-27T10:08:26.023Z,3.03
2023-02-27T10:14:06.687Z,3.83
2023-02-27T10:19:37.928Z,4.90
2023-02-27T10:25:30.234Z,4.75
2023-02-27T10:31:01.478Z,3.57
2023-02-27T10:36:34.202Z,4.70
2023-02-27T10:42:11.989Z,3.33
2023-02-27T10:47:39.982Z,3.25
2023-02-27T10:53:20.021Z,3.97
2023-02-27T10:58:47.977Z,4.47
2023-02-27T11:04:44.194Z,4.20
2023-02-27T11:10:12.536Z,4.13
2023-02-27T11:15:40.038Z,4.15
2023-02-27T11:21:12.922Z,4.40
2023-02-27T11:26:59.633Z,3.50
2023-02-27T11:32:48.383Z,3.60
2023-02-27T11:38:24.605Z,3.10
2023-02-27T11:43:53.578Z,2.35
2023-02-27T11:49:35.921Z,2.70
2023-02-27T11:55:06.124Z,2.00
2023-02-27T12:00:40.816Z,1.20
2023-02-27T12:06:17.699Z,1.88
2023-02-27T12:11:48.086Z,2.03
2023-02-27T12:17:23.371Z,2.33
2023-02-27T12:22:53.701Z,1.90
2023-02-27T12:28:30.797Z,2.42
2023-02-27T12:34:10.962Z,2.95
2023-02-27T12:39:40.107Z,3.50
2023-02-27T12:45:45.205Z,2.80
2023-02-27T12:51:34.496Z,4.25
2023-02-27T12:57:37.440Z,3.13
2023-02-27T13:03:21.093Z,4.83
2023-02-27T13:15:13.093Z,1.60
2023-02-27T13:21:37.056Z,2.55
2023-02-27T13:27:03.755Z,2.00
2023-02-27T13:32:44.514Z,1.13
2023-02-27T13:38:33.673Z,1.60
2023-02-27T13:44:20.664Z,1.92
2023-02-27T13:49:47.869Z,4.10
2023-02-27T13:55:31.391Z,2.97
2023-02-27T14:01:01.783Z,4.47
2023-02-27T14:06:30.304Z,2.42
2023-02-27T14:12:02.378Z,4.57
2023-02-27T14:17:41.291Z,6.53
2023-02-27T14:23:27.356Z,5.63
2023-02-27T14:28:57.311Z,8.07
2023-02-27T14:34:24.838Z,7.47
2023-02-27T14:39:53.958Z,7.82
2023-02-27T14:45:24.556Z,9.30
2023-02-27T14:50:54.773Z,4.28
2023-02-27T14:56:22.375Z,3.95
2023-02-27T15:01:49.874Z,3.30
2023-02-27T15:07:27.070Z,4.40
2023-02-27T15:12:54.796Z,5.40
2023-02-27T15:18:24.098Z,4.78
2023-02-27T15:23:56.333Z,6.13
2023-02-27T15:29:35.193Z,7.72
2023-02-27T15:35:06.138Z,6.20
2023-02-27T15:40:34.964Z,5.60
2023-02-27T15:46:02.527Z,5.57
2023-02-27T15:51:30.327Z,5.85
2023-02-27T15:57:00.841Z,4.55
2023-02-27T16:02:40.295Z,6.28
2023-02-27T16:08:08.682Z,3.63
2023-02-27T16:13:41.057Z,2.72
2023-02-27T16:19:29.637Z,4.30
2023-02-27T16:25:10.455Z,4.55
2023-02-27T16:30:37.615Z,4.03
2023-02-27T16:36:25.010Z,4.70
2023-02-27T16:41:54.132Z,4.05
2023-02-27T16:47:23.068Z,4.70
2023-02-27T16:52:50.850Z,4.07
2023-02-27T16:58:19.166Z,5.70
2023-02-27T17:03:47.426Z,7.57
2023-02-27T17:09:14.782Z,11.20
2023-02-27T17:14:42.875Z,10.70
2023-02-27T17:20:12.720Z,8.35
2023-02-27T17:25:42.554Z,8.70
2023-02-27T17:31:15.461Z,10.38
2023-02-27T17:36:43.388Z,10.57
2023-02-27T17:42:12.986Z,10.38
2023-02-27T17:47:41.425Z,9.88
2023-02-27T17:53:10.327Z,10.10
2023-02-27T17:58:39.013Z,9.25
2023-02-27T18:04:09.383Z,10.20
2023-02-27T18:09:38.301Z,9.73
2023-02-27T18:15:07.096Z,10.05
2023-02-27T18:20:37.629Z,11.00
2023-02-27T18:26:05.882Z,12.93
2023-02-27T18:31:40.438Z,11.00
2023-02-27T18:37:08.285Z,12.35
2023-02-27T18:42:36.648Z,9.75
2023-02-27T18:48:05.484Z,9.35
2023-02-27T18:53:35.989Z,10.52
2023-02-27T18:59:05.485Z,10.80
2023-02-27T19:04:33.922Z,10.45
2023-02-27T19:10:01.221Z,10.55
2023-02-27T19:15:29.082Z,12.48
2023-02-27T19:20:57.496Z,11.15
2023-02-27T19:26:25.172Z,12.60
2023-02-27T19:31:53.072Z,11.98
2023-02-27T19:37:21.000Z,12.68
2023-02-27T19:42:48.392Z,13.38
2023-02-27T19:48:19.121Z,13.30
2023-02-27T19:53:48.671Z,15.25
2023-02-27T19:59:16.042Z,14.20
2023-02-27T20:04:45.582Z,14.88
2023-02-27T20:10:15.305Z,15.77
2023-02-27T20:15:42.995Z,17.63
2023-02-27T20:21:16.260Z,19.50
2023-02-27T20:26:47.733Z,22.40
2023-02-27T20:32:15.313Z,21.25
2023-02-27T20:37:43.996Z,21.85
2023-02-27T20:43:12.101Z,18.73
2023-02-27T20:48:40.004Z,18.52
2023-02-27T20:54:11.557Z,19.17
2023-02-27T20:59:38.991Z,23.27
2023-02-27T21:05:06.781Z,21.42
2023-02-27T21:10:34.215Z,21.52
2023-02-27T21:16:02.431Z,23.95
2023-02-27T21:21:32.770Z,21.15
2023-02-27T21:27:00.041Z,21.77
2023-02-27T21:32:27.562Z,18.98
2023-02-27T21:37:56.315Z,17.10
2023-02-27T21:43:25.469Z,15.60
2023-02-27T21:48:53.322Z,17.27
2023-02-27T21:54:23.128Z,18.73
2023-02-27T21:59:51.157Z,18.35
2023-02-27T22:05:18.589Z,18.10
2023-02-27T22:10:46.548Z,18.52
2023-02-27T22:16:16.712Z,20.55
2023-02-27T22:21:44.263Z,20.33
2023-02-27T22:27:11.475Z,22.30
2023-02-27T22:32:40.079Z,20.05
2023-02-27T22:38:07.805Z,18.88
2023-02-27T22:43:35.881Z,18.92
2023-02-27T22:49:08.621Z,20.48
2023-02-27T22:54:36.573Z,20.83
2023-02-27T23:00:06.133Z,21.60
2023-02-27T23:05:33.760Z,21.25
2023-02-27T23:11:01.882Z,23.42
2023-02-27T23:16:29.628Z,23.58
2023-02-27T23:21:56.605Z,22.77
2023-02-27T23:27:26.301Z,19.35
2023-02-27T23:32:54.459Z,21.67
2023-02-27T23:38:22.880Z,21.13
2023-02-27T23:43:54.038Z,20.80
2023-02-27T23:49:21.823Z,19.38
2023-02-27T23:54:49.716Z,19.48
